Terminal Aerodrome Forecast
Issued by NWS Jackson, KY

Home | Current Version | Previous Version | Text Only | Print | Product List | Glossary On
Versions: 1 2 3 4 5 6 7 8 9 10 11 12 13 14 15
586
FTUS43 KJKL 081725
TAFJKL
TAF
KJKL 081725Z 0818/0918 28007G15KT P6SM SCT200
     FM090000 29006KT P6SM FEW250
     FM090600 29005KT P6SM -SHSN BKN025
     FM091700 29005KT P6SM BKN035=

USA.gov is the U.S. government's official web portal to all federal, state and local government web resources and services.